Time;durP1;ratioP1;P1;durP2;ratioP2;P2;SDS_P1;SDS_P2;PMS_P1;PMS_P2;Temp;Humidity;BMP_temperature;BMP_pressure;BME280_temperature;BME280_humidity;BME280_pressure;Samples;Min_cycle;Max_cycle;Signal;HPM_P1;HPM_P2
2021/09/09 00:01:01;;;;;;;23.30;15.27;;;15.50;99.90;;;;;;5030183;28;20025;-72
2021/09/09 00:03:26;;;;;;;15.63;14.00;;;15.50;99.90;;;;;;5030712;28;20494;-72
2021/09/09 00:05:52;;;;;;;17.92;14.00;;;15.40;99.90;;;;;;5029548;28;20025;-72
2021/09/09 00:08:18;;;;;;;21.23;15.30;;;15.50;99.90;;;;;;5030613;28;20029;-72
2021/09/09 00:10:45;;;;;;;18.90;14.55;;;15.40;99.90;;;;;;5030108;28;20045;-72
2021/09/09 00:13:10;;;;;;;15.27;13.68;;;15.40;99.90;;;;;;5057854;22;20054;-75
2021/09/09 00:15:36;;;;;;;20.75;14.90;;;15.40;99.90;;;;;;5040901;28;20419;-75
2021/09/09 00:18:02;;;;;;;16.55;14.73;;;15.30;99.90;;;;;;5049896;28;20049;-75
2021/09/09 00:20:27;;;;;;;17.13;15.30;;;15.40;99.90;;;;;;5049579;28;20080;-75
2021/09/09 00:22:53;;;;;;;21.42;14.57;;;15.40;99.90;;;;;;5049358;28;20032;-74
2021/09/09 00:25:19;;;;;;;20.17;15.90;;;15.30;99.90;;;;;;5049101;28;20434;-74
2021/09/09 00:27:44;;;;;;;17.20;14.85;;;15.30;99.90;;;;;;5047773;28;20025;-75
2021/09/09 00:30:11;;;;;;;18.77;14.65;;;15.40;99.90;;;;;;5048349;28;20055;-75
2021/09/09 00:32:37;;;;;;;18.40;14.70;;;15.30;99.90;;;;;;5051778;28;20455;-74
2021/09/09 00:35:03;;;;;;;16.27;14.55;;;15.20;99.90;;;;;;5039111;28;20064;-74
2021/09/09 00:37:28;;;;;;;19.27;15.88;;;15.20;99.90;;;;;;5033541;28;20069;-75
2021/09/09 00:39:54;;;;;;;20.50;15.43;;;15.20;99.90;;;;;;5033817;28;20071;-75
2021/09/09 00:42:20;;;;;;;18.42;15.63;;;15.20;99.90;;;;;;5033989;28;20100;-74
2021/09/09 00:44:45;;;;;;;16.35;14.23;;;15.20;99.90;;;;;;5033379;28;20070;-75
2021/09/09 00:47:12;;;;;;;19.00;14.52;;;15.10;99.90;;;;;;5032970;28;20029;-75
2021/09/09 00:49:43;;;;;;;15.27;12.77;;;15.10;99.90;;;;;;5033003;28;20472;-74
2021/09/09 00:52:10;;;;;;;16.73;13.75;;;15.10;99.90;;;;;;5035234;28;20076;-75
2021/09/09 00:54:36;;;;;;;18.75;14.57;;;15.10;99.90;;;;;;5033872;28;20033;-75
2021/09/09 00:57:04;;;;;;;19.45;14.75;;;15.10;99.90;;;;;;5034663;28;20026;-74
2021/09/09 00:59:32;;;;;;;21.08;14.88;;;15.20;99.90;;;;;;5034322;28;20017;-74
2021/09/09 01:01:58;;;;;;;17.77;14.80;;;15.20;99.90;;;;;;5034737;28;20017;-74
2021/09/09 01:04:24;;;;;;;17.90;15.77;;;15.10;99.90;;;;;;5033870;28;20029;-74
2021/09/09 01:06:50;;;;;;;19.35;16.08;;;15.10;99.90;;;;;;5034181;28;20464;-75
2021/09/09 01:09:16;;;;;;;22.20;16.73;;;15.10;99.90;;;;;;5034144;28;20021;-75
2021/09/09 01:11:42;;;;;;;20.02;15.38;;;15.00;99.90;;;;;;5033631;28;20025;-75
2021/09/09 01:14:15;;;;;;;21.13;16.10;;;15.00;99.90;;;;;;5033021;28;20518;-75
2021/09/09 01:16:43;;;;;;;18.58;15.63;;;15.00;99.90;;;;;;5033095;28;20079;-74
2021/09/09 01:19:10;;;;;;;17.52;15.15;;;15.00;99.90;;;;;;5033485;28;20096;-74
2021/09/09 01:21:36;;;;;;;17.98;15.43;;;14.90;99.90;;;;;;5032698;28;20021;-75
2021/09/09 01:24:09;;;;;;;22.13;16.58;;;14.90;99.90;;;;;;5033038;28;20029;-74
2021/09/09 01:26:51;;;;;;;22.50;15.73;;;15.00;99.90;;;;;;5032733;28;20109;-75
2021/09/09 01:29:18;;;;;;;18.93;16.20;;;14.90;99.90;;;;;;5032793;28;20017;-75
2021/09/09 01:31:44;;;;;;;24.10;17.10;;;14.90;99.90;;;;;;5031804;28;20021;-74
2021/09/09 01:34:10;;;;;;;21.27;16.90;;;14.80;99.90;;;;;;5032267;28;20052;-74
2021/09/09 01:36:36;;;;;;;19.83;17.17;;;14.80;99.90;;;;;;5032746;28;20467;-75
2021/09/09 01:39:02;;;;;;;21.70;17.55;;;14.80;99.90;;;;;;5033173;28;20026;-74
2021/09/09 01:41:27;;;;;;;21.20;17.73;;;14.70;99.90;;;;;;5033027;28;20037;-74
2021/09/09 01:43:53;;;;;;;21.17;17.25;;;14.70;99.90;;;;;;5031696;28;20021;-75
2021/09/09 01:46:19;;;;;;;20.42;17.08;;;14.70;99.90;;;;;;5032468;28;20138;-74
2021/09/09 01:48:44;;;;;;;19.85;17.08;;;14.70;99.90;;;;;;5033055;28;20029;-75
2021/09/09 01:51:10;;;;;;;20.35;17.85;;;14.60;99.90;;;;;;5032492;28;20076;-75
2021/09/09 01:53:36;;;;;;;26.33;19.05;;;14.60;99.90;;;;;;5032824;28;20036;-75
2021/09/09 01:56:01;;;;;;;22.17;17.42;;;14.60;99.90;;;;;;5032270;28;20091;-74
2021/09/09 01:58:27;;;;;;;20.08;17.75;;;14.50;99.90;;;;;;5032438;28;20104;-74
2021/09/09 02:00:53;;;;;;;17.58;15.80;;;14.50;99.90;;;;;;5031389;28;20036;-75
2021/09/09 02:03:18;;;;;;;23.70;16.52;;;14.60;99.90;;;;;;5032457;28;20029;-75
2021/09/09 02:05:44;;;;;;;19.45;15.43;;;14.60;99.90;;;;;;5031663;28;20032;-74
2021/09/09 02:08:10;;;;;;;18.73;15.35;;;14.50;99.90;;;;;;5033318;28;20031;-75
2021/09/09 02:10:35;;;;;;;17.60;14.60;;;14.40;99.90;;;;;;5032348;28;20029;-75
2021/09/09 02:13:01;;;;;;;18.30;15.43;;;14.50;99.90;;;;;;5032171;28;20033;-76
2021/09/09 02:15:26;;;;;;;22.02;16.67;;;14.40;99.90;;;;;;5032030;28;20036;-75
2021/09/09 02:17:52;;;;;;;24.23;16.45;;;14.50;99.90;;;;;;5032348;28;20129;-74
2021/09/09 02:20:18;;;;;;;25.23;17.25;;;14.50;99.90;;;;;;5031263;28;20102;-74
2021/09/09 02:22:44;;;;;;;25.77;18.02;;;14.50;99.90;;;;;;5032071;28;20061;-74
2021/09/09 02:25:10;;;;;;;21.90;17.20;;;14.50;99.90;;;;;;5032249;28;20032;-77
2021/09/09 02:27:35;;;;;;;21.65;17.40;;;14.40;99.90;;;;;;5032607;28;20037;-75
2021/09/09 02:30:01;;;;;;;24.50;18.33;;;14.30;99.90;;;;;;5031861;28;20029;-75
2021/09/09 02:32:27;;;;;;;24.77;18.27;;;14.30;99.90;;;;;;5031934;28;20029;-75
2021/09/09 02:34:53;;;;;;;26.05;19.33;;;14.30;99.90;;;;;;5031493;28;20108;-75
2021/09/09 02:37:18;;;;;;;24.05;18.48;;;14.30;99.90;;;;;;5030737;28;20034;-75
2021/09/09 02:39:47;;;;;;;25.25;18.48;;;14.30;99.90;;;;;;5031946;28;20428;-75
2021/09/09 02:42:13;;;;;;;23.23;18.77;;;14.30;99.90;;;;;;5032053;28;20017;-75
2021/09/09 02:44:39;;;;;;;24.27;18.40;;;14.30;99.90;;;;;;5031056;28;20022;-75
2021/09/09 02:47:04;;;;;;;25.85;19.52;;;14.20;99.90;;;;;;5031985;28;20107;-75
2021/09/09 02:49:30;;;;;;;24.92;17.25;;;14.20;99.90;;;;;;5030344;28;20026;-76
2021/09/09 02:51:56;;;;;;;22.98;17.73;;;14.20;99.90;;;;;;5030864;28;20076;-76
2021/09/09 02:54:22;;;;;;;19.13;16.55;;;14.20;99.90;;;;;;5030828;28;20033;-75
2021/09/09 02:56:47;;;;;;;22.80;16.85;;;14.20;99.90;;;;;;5031842;28;20029;-75
2021/09/09 02:59:13;;;;;;;25.10;18.17;;;14.20;99.90;;;;;;5032148;28;20031;-75
2021/09/09 03:01:39;;;;;;;27.05;18.95;;;14.20;99.90;;;;;;5034117;28;20029;-75
2021/09/09 03:04:05;;;;;;;25.17;19.05;;;14.10;99.90;;;;;;5038735;28;20021;-75
2021/09/09 03:06:31;;;;;;;23.75;18.60;;;14.10;99.90;;;;;;5053181;28;20038;-76
2021/09/09 03:08:56;;;;;;;27.15;19.52;;;14.10;99.90;;;;;;5038586;28;20812;-76
2021/09/09 03:11:22;;;;;;;26.00;17.88;;;14.10;99.90;;;;;;5035604;28;20029;-75
2021/09/09 03:13:48;;;;;;;23.30;18.58;;;14.20;99.90;;;;;;5037794;28;20136;-77
2021/09/09 03:16:13;;;;;;;26.13;18.77;;;14.10;99.90;;;;;;5038630;28;20018;-75
2021/09/09 03:18:39;;;;;;;21.88;15.98;;;14.10;99.90;;;;;;5034233;28;20029;-75
2021/09/09 03:21:05;;;;;;;19.23;14.38;;;14.00;99.90;;;;;;5032290;28;20021;-75
2021/09/09 03:23:31;;;;;;;18.02;15.65;;;13.90;99.90;;;;;;5033748;28;20129;-76
2021/09/09 03:25:56;;;;;;;17.27;14.15;;;13.90;99.90;;;;;;5032242;28;20057;-75
2021/09/09 03:28:22;;;;;;;22.10;15.80;;;13.90;99.90;;;;;;5031227;28;20546;-75
2021/09/09 03:30:47;;;;;;;18.65;15.77;;;13.90;99.90;;;;;;5031224;28;20033;-76
2021/09/09 03:33:13;;;;;;;18.02;14.95;;;14.00;99.90;;;;;;5030877;28;20388;-75
2021/09/09 03:35:39;;;;;;;17.70;15.32;;;13.90;99.90;;;;;;5034080;28;20037;-74
2021/09/09 03:38:05;;;;;;;19.40;14.70;;;13.90;99.90;;;;;;5032118;28;20112;-76
2021/09/09 03:40:31;;;;;;;18.23;14.95;;;13.90;99.90;;;;;;5031135;28;20487;-75
2021/09/09 03:42:56;;;;;;;22.27;17.00;;;13.90;99.90;;;;;;5030109;28;20017;-74
2021/09/09 03:45:22;;;;;;;18.45;15.60;;;13.90;99.90;;;;;;5030292;28;20056;-74
2021/09/09 03:47:47;;;;;;;19.70;16.13;;;13.90;99.90;;;;;;5030932;28;20030;-75
2021/09/09 03:50:13;;;;;;;24.30;16.35;;;13.90;99.90;;;;;;5030678;28;20108;-75
2021/09/09 03:52:39;;;;;;;21.38;16.40;;;13.90;99.90;;;;;;5030863;28;20064;-74
2021/09/09 03:55:05;;;;;;;18.45;16.45;;;13.90;99.90;;;;;;5028719;28;20029;-74
2021/09/09 03:57:31;;;;;;;20.33;16.38;;;13.80;99.90;;;;;;5031219;28;20025;-74
2021/09/09 03:59:56;;;;;;;23.23;17.35;;;13.90;99.90;;;;;;5030750;28;20403;-74
2021/09/09 04:02:22;;;;;;;26.15;19.02;;;13.80;99.90;;;;;;5030375;28;20022;-74
2021/09/09 04:04:48;;;;;;;22.88;18.10;;;13.90;99.90;;;;;;5028601;28;20371;-74
2021/09/09 04:07:13;;;;;;;24.60;18.80;;;13.90;99.90;;;;;;5032321;28;20018;-74
2021/09/09 04:09:39;;;;;;;22.75;17.35;;;13.80;99.90;;;;;;5034613;28;20038;-74
2021/09/09 04:12:05;;;;;;;24.50;19.33;;;13.90;99.90;;;;;;5034863;28;20030;-74
2021/09/09 04:14:32;;;;;;;27.73;18.92;;;13.80;99.90;;;;;;5033809;28;20060;-75
2021/09/09 04:16:58;;;;;;;24.60;18.85;;;13.80;99.90;;;;;;5034311;28;20021;-74
2021/09/09 04:19:24;;;;;;;25.00;18.88;;;13.80;99.90;;;;;;5033105;28;20537;-75
2021/09/09 04:21:51;;;;;;;30.60;20.25;;;13.70;99.90;;;;;;5034677;28;20018;-75
2021/09/09 04:24:17;;;;;;;26.63;19.60;;;13.70;99.90;;;;;;5034010;28;20025;-75
2021/09/09 04:26:43;;;;;;;24.92;18.23;;;13.70;99.90;;;;;;5034414;28;20054;-74
2021/09/09 04:29:09;;;;;;;28.42;19.38;;;13.60;99.90;;;;;;5034047;28;20060;-75
2021/09/09 04:31:35;;;;;;;24.13;18.52;;;13.60;99.90;;;;;;5032103;28;20109;-75
2021/09/09 04:34:01;;;;;;;20.98;18.15;;;13.60;99.90;;;;;;5026904;28;20079;-76
2021/09/09 04:36:27;;;;;;;20.60;18.13;;;13.60;99.90;;;;;;5033226;28;20025;-76
2021/09/09 04:38:52;;;;;;;22.63;17.35;;;13.60;99.90;;;;;;5032308;28;20060;-76
2021/09/09 04:41:18;;;;;;;21.75;18.25;;;13.60;99.90;;;;;;5031708;28;20479;-75
2021/09/09 04:43:45;;;;;;;20.95;17.40;;;13.50;99.90;;;;;;5033328;28;20032;-75
2021/09/09 04:46:10;;;;;;;19.50;17.20;;;13.60;99.90;;;;;;5032944;28;20665;-75
2021/09/09 04:48:36;;;;;;;22.95;17.88;;;13.60;99.90;;;;;;5033807;28;20030;-77
2021/09/09 04:51:02;;;;;;;25.33;19.15;;;13.60;99.90;;;;;;5034382;28;20029;-75
2021/09/09 04:53:27;;;;;;;28.50;19.17;;;13.60;99.90;;;;;;5034103;28;20030;-75
2021/09/09 04:55:54;;;;;;;24.02;18.33;;;13.60;99.90;;;;;;5033674;28;20395;-75
2021/09/09 04:58:20;;;;;;;24.17;18.45;;;13.50;99.90;;;;;;5034595;28;20147;-75
2021/09/09 05:00:45;;;;;;;21.17;17.08;;;13.50;99.90;;;;;;5034137;28;20135;-76
2021/09/09 05:03:11;;;;;;;22.35;16.70;;;13.40;99.90;;;;;;5034784;28;20025;-76
2021/09/09 05:05:37;;;;;;;20.23;16.30;;;13.40;99.90;;;;;;5030760;28;20495;-75
2021/09/09 05:08:02;;;;;;;25.27;17.70;;;13.50;99.90;;;;;;5034345;28;20025;-76
2021/09/09 05:10:28;;;;;;;20.90;16.77;;;13.60;99.90;;;;;;5033244;28;20431;-76
2021/09/09 05:12:54;;;;;;;24.60;16.92;;;13.70;99.90;;;;;;5033851;28;20037;-75
2021/09/09 05:15:19;;;;;;;22.48;17.65;;;13.70;99.90;;;;;;5032971;28;20033;-76
2021/09/09 05:17:45;;;;;;;23.63;18.00;;;13.70;99.90;;;;;;5034030;28;20037;-76
2021/09/09 05:20:11;;;;;;;23.92;18.10;;;13.70;99.90;;;;;;5033935;28;20451;-75
2021/09/09 05:22:37;;;;;;;23.50;18.48;;;13.60;99.90;;;;;;5034461;28;20026;-75
2021/09/09 05:25:03;;;;;;;21.85;18.02;;;13.60;99.90;;;;;;5032999;28;20480;-76
2021/09/09 05:27:28;;;;;;;19.63;17.13;;;13.60;99.90;;;;;;5034023;28;20021;-75
2021/09/09 05:29:54;;;;;;;21.88;18.02;;;13.60;99.90;;;;;;5033802;28;20022;-75
2021/09/09 05:32:20;;;;;;;20.67;16.75;;;13.60;99.90;;;;;;5034323;28;20029;-76
2021/09/09 05:34:45;;;;;;;24.45;16.92;;;13.70;99.90;;;;;;5032819;28;20522;-76
2021/09/09 05:37:11;;;;;;;21.38;15.98;;;13.80;99.90;;;;;;5033796;28;20029;-77
2021/09/09 05:39:37;;;;;;;23.15;16.80;;;13.80;99.90;;;;;;5034219;28;20068;-77
2021/09/09 05:42:03;;;;;;;21.00;17.35;;;13.90;99.90;;;;;;5033931;28;20033;-77
2021/09/09 05:44:28;;;;;;;21.08;15.43;;;13.90;99.90;;;;;;5032675;28;20029;-76
2021/09/09 05:46:54;;;;;;;19.88;16.20;;;13.90;99.90;;;;;;5033554;28;20025;-76
2021/09/09 05:49:20;;;;;;;19.55;16.65;;;13.90;99.90;;;;;;5033499;28;20018;-76
2021/09/09 05:51:45;;;;;;;21.20;16.63;;;14.00;99.90;;;;;;5033368;28;20026;-77
2021/09/09 05:54:11;;;;;;;22.15;16.42;;;14.10;99.90;;;;;;5030852;28;20013;-76
2021/09/09 05:56:37;;;;;;;19.98;15.25;;;14.10;99.90;;;;;;5033068;28;20032;-77
2021/09/09 05:59:03;;;;;;;20.50;14.93;;;14.10;99.90;;;;;;5033694;28;20045;-77
2021/09/09 06:01:29;;;;;;;18.58;13.52;;;14.10;99.90;;;;;;5033579;28;20029;-75
2021/09/09 06:03:56;;;;;;;18.00;12.23;;;14.00;99.90;;;;;;5031969;28;20022;-76
2021/09/09 06:06:23;;;;;;;15.20;12.02;;;14.00;99.90;;;;;;5032743;28;20029;-76
2021/09/09 06:08:49;;;;;;;16.30;12.02;;;14.10;99.90;;;;;;5033716;28;20030;-76
2021/09/09 06:11:14;;;;;;;15.85;11.93;;;14.20;99.90;;;;;;5033756;28;20026;-76
2021/09/09 06:13:40;;;;;;;14.63;11.82;;;14.30;99.90;;;;;;5033678;28;20040;-76
2021/09/09 06:16:06;;;;;;;15.70;13.00;;;14.40;99.90;;;;;;5032645;28;20026;-77
2021/09/09 06:18:33;;;;;;;18.00;12.52;;;14.60;99.90;;;;;;5033688;28;20025;-77
2021/09/09 06:20:58;;;;;;;18.63;12.27;;;14.70;99.90;;;;;;5032097;28;20021;-76
2021/09/09 06:23:24;;;;;;;15.00;12.57;;;14.80;99.90;;;;;;5033481;28;20020;-77
2021/09/09 06:25:50;;;;;;;15.10;12.10;;;15.10;99.90;;;;;;5032467;28;20052;-77
2021/09/09 06:28:15;;;;;;;15.05;11.63;;;15.20;99.90;;;;;;5032642;28;20221;-77
2021/09/09 06:30:41;;;;;;;17.35;11.27;;;15.20;99.90;;;;;;5032793;28;20070;-76
2021/09/09 06:33:07;;;;;;;17.58;12.02;;;15.20;99.90;;;;;;5033138;28;20041;-76
2021/09/09 06:35:32;;;;;;;16.73;11.88;;;15.20;99.90;;;;;;5031133;28;20036;-76
2021/09/09 06:37:58;;;;;;;13.35;11.27;;;15.20;99.90;;;;;;5032081;28;20115;-76
2021/09/09 06:40:24;;;;;;;16.20;11.45;;;15.40;99.90;;;;;;5029536;28;20109;-77
2021/09/09 06:42:50;;;;;;;19.15;11.68;;;15.50;99.90;;;;;;5018012;28;20026;-78
2021/09/09 06:45:15;;;;;;;14.82;11.98;;;15.40;99.90;;;;;;5018994;28;20061;-78
2021/09/09 06:47:41;;;;;;;13.20;10.98;;;15.60;99.90;;;;;;5023509;28;20032;-77
2021/09/09 06:50:07;;;;;;;13.40;11.60;;;15.70;99.90;;;;;;5032075;28;20033;-77
2021/09/09 06:52:33;;;;;;;13.50;10.15;;;15.80;99.90;;;;;;5031080;28;20079;-77
2021/09/09 06:54:59;;;;;;;15.60;11.10;;;15.90;99.90;;;;;;5032045;28;20029;-76
2021/09/09 06:57:25;;;;;;;12.60;9.75;;;16.20;99.90;;;;;;5032447;28;20475;-76
2021/09/09 06:59:50;;;;;;;17.60;10.52;;;16.40;99.90;;;;;;5032767;28;20018;-76
2021/09/09 07:02:16;;;;;;;14.80;9.70;;;16.50;99.90;;;;;;5033008;28;20503;-79
2021/09/09 07:04:42;;;;;;;12.77;10.23;;;16.60;99.90;;;;;;5030085;28;20416;-77
2021/09/09 07:07:07;;;;;;;12.15;9.52;;;16.70;99.90;;;;;;5013607;28;20069;-77
2021/09/09 07:09:33;;;;;;;14.45;10.45;;;16.80;99.90;;;;;;5013376;28;20418;-76
2021/09/09 07:11:59;;;;;;;15.27;10.77;;;16.80;99.90;;;;;;5012765;28;20026;-77
2021/09/09 07:14:24;;;;;;;15.75;11.90;;;16.90;99.90;;;;;;5011948;28;20117;-77
2021/09/09 07:16:50;;;;;;;15.82;11.68;;;17.10;99.90;;;;;;5012783;28;20104;-75
2021/09/09 07:19:16;;;;;;;14.68;11.57;;;17.40;99.90;;;;;;5012691;28;20057;-73
2021/09/09 07:21:43;;;;;;;15.15;11.25;;;17.50;99.90;;;;;;5012886;28;20459;-74
2021/09/09 07:24:09;;;;;;;12.02;10.70;;;17.50;99.90;;;;;;5012281;28;20026;-76
2021/09/09 07:26:35;;;;;;;16.55;11.20;;;17.60;99.90;;;;;;5011997;28;20096;-77
2021/09/09 07:29:01;;;;;;;15.20;10.70;;;17.80;99.90;;;;;;5030679;28;20491;-74
2021/09/09 07:31:29;;;;;;;17.52;10.50;;;17.90;99.90;;;;;;5032245;28;20387;-74
2021/09/09 07:33:55;;;;;;;10.45;9.38;;;18.10;99.90;;;;;;5037141;28;20033;-75
2021/09/09 07:36:20;;;;;;;17.30;10.02;;;18.20;99.90;;;;;;5034575;28;20021;-76
2021/09/09 07:38:46;;;;;;;16.05;9.68;;;18.20;99.90;;;;;;5054865;28;20092;-77
2021/09/09 07:41:12;;;;;;;11.95;9.38;;;18.40;99.90;;;;;;5034533;28;20494;-76
2021/09/09 07:43:39;;;;;;;14.30;10.40;;;18.60;99.90;;;;;;5025959;28;20032;-75
2021/09/09 07:46:04;;;;;;;18.17;9.43;;;18.70;99.90;;;;;;5019959;28;20018;-76
2021/09/09 07:48:30;;;;;;;14.60;9.00;;;18.90;99.90;;;;;;5022461;28;20112;-77
2021/09/09 07:50:55;;;;;;;14.43;8.85;;;19.10;99.90;;;;;;5031576;28;20040;-78
2021/09/09 07:53:21;;;;;;;13.25;9.50;;;19.20;99.90;;;;;;5014938;28;20109;-76
2021/09/09 07:55:47;;;;;;;10.05;6.53;;;19.40;99.90;;;;;;5010306;28;20113;-75
2021/09/09 07:58:13;;;;;;;11.70;7.78;;;19.90;99.90;;;;;;5019223;28;20040;-78
2021/09/09 08:00:39;;;;;;;12.63;7.68;;;20.60;99.90;;;;;;5031783;28;20041;-77
2021/09/09 08:03:04;;;;;;;7.97;6.78;;;21.10;99.90;;;;;;5031904;28;20021;-77
2021/09/09 08:05:30;;;;;;;11.45;6.82;;;21.30;99.90;;;;;;5029529;28;20025;-78
2021/09/09 08:07:55;;;;;;;9.60;7.10;;;21.60;99.90;;;;;;5030690;28;20029;-76
2021/09/09 08:10:21;;;;;;;7.63;6.72;;;21.90;99.90;;;;;;5031582;28;20072;-77
2021/09/09 08:12:47;;;;;;;8.73;7.15;;;22.50;99.90;;;;;;5031833;28;20124;-76
2021/09/09 08:15:14;;;;;;;7.10;6.35;;;22.50;99.90;;;;;;5031151;28;20025;-76
2021/09/09 08:17:41;;;;;;;8.65;6.50;;;22.90;99.90;;;;;;5031650;28;20071;-77
2021/09/09 08:20:07;;;;;;;9.05;6.75;;;23.60;99.90;;;;;;5031124;28;20026;-76
2021/09/09 08:22:33;;;;;;;13.15;6.43;;;23.00;99.90;;;;;;5011624;28;20026;-77
2021/09/09 08:24:59;;;;;;;7.47;6.32;;;22.90;99.90;;;;;;5011005;28;20112;-79
2021/09/09 08:27:24;;;;;;;7.57;6.63;;;23.30;99.90;;;;;;5019201;28;20136;-76
2021/09/09 08:29:50;;;;;;;9.32;6.45;;;23.20;99.90;;;;;;5030278;28;20472;-75
2021/09/09 08:32:16;;;;;;;7.93;5.88;;;23.50;99.90;;;;;;5031474;28;20100;-75
2021/09/09 08:34:42;;;;;;;13.35;5.90;;;23.70;99.90;;;;;;5030714;28;20032;-75
2021/09/09 08:37:08;;;;;;;7.82;6.45;;;23.90;99.90;;;;;;5031617;28;20071;-76
2021/09/09 08:39:33;;;;;;;9.80;5.85;;;24.40;99.90;;;;;;5031496;28;20093;-76
2021/09/09 08:41:59;;;;;;;6.38;5.03;;;24.30;99.90;;;;;;5032652;28;20497;-75
2021/09/09 08:44:25;;;;;;;6.75;5.32;;;24.30;99.90;;;;;;5030496;28;20020;-74
2021/09/09 08:46:51;;;;;;;6.85;5.63;;;24.30;99.90;;;;;;5031222;28;20693;-75
2021/09/09 08:49:24;;;;;;;8.35;5.68;;;24.90;99.90;;;;;;5025549;28;20022;-75
2021/09/09 08:51:53;;;;;;;6.90;5.03;;;24.30;99.90;;;;;;5018993;28;20050;-75
2021/09/09 08:54:19;;;;;;;6.07;4.85;;;24.50;99.90;;;;;;5022018;28;20052;-75
2021/09/09 08:56:45;;;;;;;9.20;5.32;;;25.30;99.90;;;;;;5024228;28;20629;-74
2021/09/09 08:59:11;;;;;;;7.30;5.95;;;24.60;99.90;;;;;;5027269;28;20438;-74
2021/09/09 09:02:04;;;;;;;8.75;5.63;;;24.40;99.90;;;;;;5024725;28;20100;-74
2021/09/09 09:08:04;;;;;;;8.50;5.07;;;25.60;99.90;;;;;;5028198;28;20040;-76
2021/09/09 09:10:31;;;;;;;5.93;5.38;;;26.60;99.90;;;;;;5024968;28;20022;-75
2021/09/09 09:12:57;;;;;;;6.72;4.88;;;26.60;99.90;;;;;;5021934;28;20018;-76
2021/09/09 09:15:27;;;;;;;7.30;5.20;;;27.70;99.90;;;;;;5022579;28;20466;-74
2021/09/09 09:17:57;;;;;;;13.43;5.30;;;25.90;99.90;;;;;;5024433;28;20029;-75
2021/09/09 09:20:28;;;;;;;8.02;5.43;;;25.80;99.90;;;;;;5021237;28;20024;-74
2021/09/09 09:22:54;;;;;;;5.60;5.07;;;26.20;99.90;;;;;;5023782;28;20029;-74
2021/09/09 09:25:50;;;;;;;5.97;4.90;;;26.00;99.90;;;;;;5020825;28;20029;-74
2021/09/09 09:28:39;;;;;;;7.32;5.50;;;26.50;99.90;;;;;;5028726;28;20032;-75
2021/09/09 09:31:09;;;;;;;6.15;4.75;;;27.20;99.90;;;;;;5025260;28;20025;-76
2021/09/09 09:33:43;;;;;;;8.95;4.72;;;26.80;99.90;;;;;;5025198;28;20026;-76
2021/09/09 09:36:16;;;;;;;6.57;4.35;;;27.60;98.00;;;;;;5023364;28;20028;-77
2021/09/09 09:38:42;;;;;;;5.25;3.92;;;27.80;97.10;;;;;;5021701;28;20033;-75
2021/09/09 09:41:08;;;;;;;5.05;4.47;;;28.10;96.30;;;;;;5030651;28;20559;-75
2021/09/09 09:43:34;;;;;;;4.97;4.45;;;27.70;96.30;;;;;;5033349;28;20155;-76
2021/09/09 09:46:00;;;;;;;11.10;4.70;;;25.90;98.50;;;;;;5032899;28;20029;-76
2021/09/09 09:48:32;;;;;;;5.38;4.57;;;25.10;99.50;;;;;;5032976;28;20033;-77
2021/09/09 09:50:58;;;;;;;8.80;4.30;;;25.60;98.80;;;;;;5032929;28;20103;-76
2021/09/09 09:53:24;;;;;;;6.40;4.28;;;26.20;98.60;;;;;;5033624;28;20061;-76
2021/09/09 09:55:50;;;;;;;4.60;4.20;;;27.10;97.60;;;;;;5032763;28;20030;-76
2021/09/09 09:58:16;;;;;;;9.02;4.50;;;27.80;96.10;;;;;;5033788;28;20377;-77
2021/09/09 10:00:43;;;;;;;7.90;4.40;;;27.90;95.90;;;;;;5033477;28;20028;-75
2021/09/09 10:03:08;;;;;;;7.47;4.57;;;27.80;95.90;;;;;;5023714;28;20129;-74
2021/09/09 10:05:38;;;;;;;7.63;4.55;;;27.90;96.50;;;;;;5020630;28;20503;-77
2021/09/09 10:08:08;;;;;;;4.72;4.32;;;26.20;97.60;;;;;;5023380;28;20033;-79
2021/09/09 10:10:34;;;;;;;7.45;4.78;;;25.40;98.90;;;;;;5021744;28;20021;-78
2021/09/09 10:13:01;;;;;;;7.03;4.90;;;25.00;98.80;;;;;;5023381;28;20072;-77
2021/09/09 10:15:28;;;;;;;7.20;5.10;;;24.80;99.90;;;;;;5019609;28;20108;-77
2021/09/09 10:17:55;;;;;;;9.38;5.32;;;24.70;99.90;;;;;;5021940;28;20029;-74
2021/09/09 10:20:28;;;;;;;7.05;5.57;;;25.50;99.90;;;;;;5022797;28;20030;-74
2021/09/09 10:23:14;;;;;;;5.45;4.95;;;25.80;98.50;;;;;;5022592;28;20026;-74
2021/09/09 10:25:54;;;;;;;5.93;5.05;;;25.60;98.50;;;;;;5019956;28;20022;-74
2021/09/09 10:28:37;;;;;;;5.97;4.45;;;26.10;98.40;;;;;;5023225;28;20030;-74
2021/09/09 10:31:12;;;;;;;4.97;4.35;;;26.70;95.60;;;;;;5020497;28;20017;-74
2021/09/09 10:33:47;;;;;;;6.05;4.32;;;26.90;97.30;;;;;;5020425;28;20886;-74
2021/09/09 10:36:40;;;;;;;7.47;4.47;;;28.00;95.30;;;;;;5020330;28;20025;-75
2021/09/09 10:39:21;;;;;;;4.50;4.10;;;27.40;93.90;;;;;;5022416;28;20025;-74
2021/09/09 10:41:47;;;;;;;5.35;4.20;;;26.80;95.90;;;;;;5021312;28;20516;-74
2021/09/09 10:44:13;;;;;;;5.25;4.05;;;26.80;92.90;;;;;;5020936;28;20148;-74
2021/09/09 10:46:45;;;;;;;7.20;4.25;;;27.20;94.30;;;;;;5021438;28;20096;-75
2021/09/09 10:49:18;;;;;;;4.18;3.78;;;27.70;91.60;;;;;;5020596;28;20029;-74
2021/09/09 10:52:05;;;;;;;6.22;4.68;;;28.00;91.90;;;;;;5020589;28;20026;-75
2021/09/09 10:54:32;;;;;;;5.00;4.38;;;27.50;92.00;;;;;;5020472;28;20030;-75
2021/09/09 10:57:14;;;;;;;4.45;4.05;;;26.70;91.60;;;;;;5020818;28;20143;-74
2021/09/09 10:59:47;;;;;;;6.03;4.25;;;26.80;92.20;;;;;;5021906;28;20032;-75
2021/09/09 11:02:15;;;;;;;4.60;4.13;;;27.30;91.40;;;;;;5020897;28;20034;-75
2021/09/09 11:04:42;;;;;;;5.18;4.18;;;27.30;91.40;;;;;;5019871;28;20017;-74
2021/09/09 11:07:26;;;;;;;4.80;4.32;;;27.80;92.20;;;;;;5020305;28;20018;-75
2021/09/09 11:10:06;;;;;;;6.22;4.22;;;28.10;90.50;;;;;;5019673;28;20424;-75
2021/09/09 11:12:41;;;;;;;6.82;4.45;;;29.00;88.10;;;;;;5019411;28;20014;-77
2021/09/09 11:15:10;;;;;;;4.28;3.95;;;29.90;88.50;;;;;;5018618;28;20017;-75
2021/09/09 11:17:36;;;;;;;3.88;3.60;;;30.10;85.00;;;;;;5012378;28;20026;-78
2021/09/09 11:20:08;;;;;;;5.25;4.00;;;30.60;86.30;;;;;;5014232;28;20037;-78
2021/09/09 11:22:35;;;;;;;7.10;4.00;;;30.90;83.60;;;;;;5014461;28;20044;-80
2021/09/09 11:25:01;;;;;;;4.85;4.32;;;31.10;81.90;;;;;;5013454;28;20026;-77
2021/09/09 11:27:33;;;;;;;5.70;3.83;;;30.20;82.20;;;;;;5018530;28;20086;-78
2021/09/09 11:30:01;;;;;;;8.93;3.63;;;30.10;82.40;;;;;;5026575;28;20021;-80
2021/09/09 11:32:28;;;;;;;4.72;4.22;;;30.20;81.60;;;;;;5025797;28;20105;-80
2021/09/09 11:35:05;;;;;;;4.57;3.80;;;30.50;80.80;;;;;;5024360;28;20026;-80
2021/09/09 11:37:42;;;;;;;6.40;4.15;;;30.20;79.70;;;;;;5027055;28;20060;-80
2021/09/09 11:40:08;;;;;;;4.57;4.20;;;29.40;82.00;;;;;;5029312;28;20018;-78
2021/09/09 11:42:34;;;;;;;8.80;4.05;;;29.50;84.50;;;;;;5033399;28;20017;-81
2021/09/09 11:45:01;;;;;;;5.57;3.88;;;29.90;84.00;;;;;;5028478;28;20028;-79
2021/09/09 11:47:29;;;;;;;6.13;4.18;;;29.60;81.90;;;;;;5027927;28;20043;-80
2021/09/09 11:50:03;;;;;;;6.25;3.80;;;30.60;83.00;;;;;;5032239;28;20032;-81
2021/09/09 11:52:29;;;;;;;5.53;3.88;;;30.80;80.20;;;;;;5030508;28;20050;-81
2021/09/09 11:54:55;;;;;;;5.10;4.70;;;30.40;80.40;;;;;;5029819;28;20045;-80
2021/09/09 11:57:20;;;;;;;7.07;4.32;;;30.10;81.60;;;;;;5027709;28;20021;-81
2021/09/09 11:59:57;;;;;;;4.75;4.32;;;28.40;83.30;;;;;;5025084;28;20033;-80
2021/09/09 12:02:27;;;;;;;5.95;4.65;;;27.60;85.60;;;;;;5026859;28;20025;-81
2021/09/09 12:04:53;;;;;;;7.18;5.00;;;28.00;89.70;;;;;;5026156;28;20025;-81
2021/09/09 12:07:27;;;;;;;4.85;4.45;;;28.60;83.70;;;;;;5020572;28;20022;-80
2021/09/09 12:09:53;;;;;;;7.00;4.70;;;28.90;85.60;;;;;;5020564;28;20529;-81
2021/09/09 12:12:18;;;;;;;6.90;4.15;;;29.60;84.80;;;;;;5024790;28;20072;-78
2021/09/09 12:14:44;;;;;;;5.45;4.45;;;30.30;81.70;;;;;;5021038;28;20033;-77
2021/09/09 12:17:12;;;;;;;4.97;4.05;;;30.20;81.60;;;;;;5020131;28;20487;-79
2021/09/09 12:20:09;;;;;;;4.47;4.00;;;29.90;80.70;;;;;;5034660;28;20029;-79
2021/09/09 12:22:56;;;;;;;4.75;4.25;;;29.60;79.30;;;;;;5036822;28;20021;-78
2021/09/09 12:25:27;;;;;;;5.72;4.22;;;29.80;80.60;;;;;;5018593;28;20038;-79
2021/09/09 12:28:14;;;;;;;4.45;4.03;;;30.20;80.50;;;;;;5019592;28;20022;-78
2021/09/09 12:30:47;;;;;;;4.50;3.55;;;30.80;79.70;;;;;;5022922;28;20037;-78
2021/09/09 12:33:25;;;;;;;3.50;3.25;;;31.50;77.80;;;;;;5025324;28;20013;-78
2021/09/09 12:36:11;;;;;;;6.68;3.78;;;30.50;75.30;;;;;;5023366;28;20032;-78
2021/09/09 12:38:51;;;;;;;3.40;3.10;;;30.40;77.50;;;;;;5028337;28;20021;-77